Time;durP1;ratioP1;P1;durP2;ratioP2;P2;SDS_P1;SDS_P2;PMS_P1;PMS_P2;Temp;Humidity;BMP_temperature;BMP_pressure;BME280_temperature;BME280_humidity;BME280_pressure;Samples;Min_cycle;Max_cycle;Signal;HPM_P1;HPM_P2
2021/11/01 00:01:22;;;;;;;42.38;21.93;;;;;;;0.35;77.43;97770.05;1709746;83;21128;-89
2021/11/01 00:03:49;;;;;;;43.90;21.35;;;;;;;0.32;77.50;97765.22;1709457;82;21071;-88
2021/11/01 00:06:17;;;;;;;42.10;22.00;;;;;;;0.28;77.97;97763.48;1772394;81;21394;-90
2021/11/01 00:08:46;;;;;;;45.80;23.00;;;;;;;0.28;78.19;97764.33;1678598;81;21414;-90
2021/11/01 00:11:18;;;;;;;46.00;21.75;;;;;;;0.29;77.76;97764.77;1743284;81;20997;-94
2021/11/01 00:13:46;;;;;;;42.40;21.80;;;;;;;0.28;77.75;97760.42;1703480;84;21062;-87
2021/11/01 00:16:12;;;;;;;34.70;18.60;;;;;;;0.28;78.78;97760.42;1740795;82;21031;-84
2021/11/01 00:18:39;;;;;;;42.67;19.85;;;;;;;0.31;78.28;97755.66;1710242;83;21511;-89
2021/11/01 00:21:06;;;;;;;37.00;19.02;;;;;;;0.33;78.67;97756.56;1684620;85;21188;-91
2021/11/01 00:23:33;;;;;;;40.90;19.82;;;;;;;0.34;78.53;97750.48;1714790;82;22095;-91
2021/11/01 00:26:02;;;;;;;35.80;18.92;;;;;;;0.38;79.03;97753.56;1707977;84;21563;-92
2021/11/01 00:28:34;;;;;;;37.25;19.52;;;;;;;0.37;78.89;97753.98;1712965;84;21072;-91
2021/11/01 00:31:01;;;;;;;38.78;20.85;;;;;;;0.33;78.88;97748.74;1712912;84;21112;-91
2021/11/01 00:33:30;;;;;;;38.63;19.87;;;;;;;0.34;79.03;97751.79;1712226;84;21043;-90
2021/11/01 00:35:59;;;;;;;39.05;20.32;;;;;;;0.32;78.75;97741.34;1712516;84;21044;-90
2021/11/01 00:38:25;;;;;;;36.42;20.50;;;;;;;0.28;78.64;97736.97;1712243;84;21506;-90
2021/11/01 00:40:52;;;;;;;39.90;20.40;;;;;;;0.24;78.49;97740.41;1713185;84;21066;-90
2021/11/01 00:43:19;;;;;;;44.30;21.70;;;;;;;0.18;78.65;97740.36;1712828;84;21023;-90
2021/11/01 00:45:45;;;;;;;43.58;22.70;;;;;;;0.14;78.37;97735.56;1707273;84;21059;-90
2021/11/01 00:48:12;;;;;;;38.30;20.02;;;;;;;0.07;78.25;97737.25;1697028;85;21028;-85
2021/11/01 00:50:39;;;;;;;46.05;22.15;;;;;;;0.02;78.57;97732.42;1705377;84;21020;-85
2021/11/01 00:53:06;;;;;;;43.17;21.17;;;;;;;0.04;78.37;97721.58;1702777;84;21008;-85
2021/11/01 00:55:47;;;;;;;41.68;21.05;;;;;;;0.04;78.93;97723.33;1699394;84;21446;-85
2021/11/01 00:58:04;;;;;;;43.52;22.95;;;;;;;0.02;78.47;97723.31;1694065;85;21044;-83
2021/11/01 01:00:31;;;;;;;41.20;20.95;;;;;;;0.02;78.44;97721.12;1696764;84;21085;-85
2021/11/01 01:02:58;;;;;;;38.85;20.90;;;;;;;-0.03;78.32;97720.65;1699558;84;21072;-85
2021/11/01 01:05:25;;;;;;;39.83;20.70;;;;;;;-0.07;78.32;97719.32;1700251;84;21032;-82
2021/11/01 01:07:51;;;;;;;38.10;19.80;;;;;;;-0.13;78.25;97716.22;1700066;84;21025;-88
2021/11/01 01:10:20;;;;;;;45.70;20.32;;;;;;;-0.16;78.37;97718.38;1699692;84;21020;-85
2021/11/01 01:12:47;;;;;;;40.80;20.20;;;;;;;-0.17;78.62;97717.94;1699884;84;21069;-84
2021/11/01 01:15:20;;;;;;;40.03;21.27;;;;;;;-0.18;78.35;97717.50;1698774;84;21076;-85
2021/11/01 01:17:47;;;;;;;45.85;22.60;;;;;;;-0.21;78.73;97716.16;1699635;84;21017;-85
2021/11/01 01:20:17;;;;;;;36.95;20.12;;;;;;;-0.20;78.69;97715.29;1684741;84;21116;-85
2021/11/01 01:22:44;;;;;;;38.20;19.52;;;;;;;-0.22;78.98;97707.02;1684602;84;21000;-85
2021/11/01 01:25:24;;;;;;;40.90;19.90;;;;;;;-0.25;78.53;97710.92;1678475;84;21046;-85
2021/11/01 01:27:53;;;;;;;39.20;19.70;;;;;;;-0.27;78.51;97703.09;1672523;84;20936;-85
2021/11/01 01:30:23;;;;;;;34.20;17.95;;;;;;;-0.29;78.52;97694.41;1672216;84;21016;-85
2021/11/01 01:32:49;;;;;;;42.10;20.40;;;;;;;-0.35;78.25;97694.32;1685719;84;21000;-85
2021/11/01 01:35:17;;;;;;;34.23;18.82;;;;;;;-0.38;78.55;97700.83;1700360;84;21021;-85
2021/11/01 01:37:44;;;;;;;35.88;19.10;;;;;;;-0.41;78.41;97697.31;1700492;84;21088;-85
2021/11/01 01:40:15;;;;;;;40.43;19.90;;;;;;;-0.47;78.33;97702.47;1700256;84;21092;-85
2021/11/01 01:42:41;;;;;;;36.85;19.20;;;;;;;-0.47;78.73;97706.79;1700478;84;21005;-85
2021/11/01 01:45:10;;;;;;;35.40;18.62;;;;;;;-0.50;78.63;97706.34;1699689;84;21000;-85
2021/11/01 01:47:40;;;;;;;36.93;19.60;;;;;;;-0.52;78.61;97692.86;1700433;84;20980;-84
2021/11/01 01:50:06;;;;;;;33.75;18.23;;;;;;;-0.55;78.53;97689.38;1700323;84;21064;-84
2021/11/01 01:52:33;;;;;;;40.05;18.95;;;;;;;-0.58;78.72;97687.19;1700314;84;21052;-85
2021/11/01 01:54:59;;;;;;;39.95;19.35;;;;;;;-0.59;78.79;97688.91;1712373;84;21018;-85
2021/11/01 01:57:27;;;;;;;36.77;17.98;;;;;;;-0.58;78.69;97683.28;1712980;84;21031;-86
2021/11/01 01:59:53;;;;;;;35.52;17.92;;;;;;;-0.61;78.79;97680.63;1711327;83;20994;-86
2021/11/01 02:02:20;;;;;;;39.80;19.67;;;;;;;-0.64;78.68;97687.10;1708482;83;21515;-86
2021/11/01 02:04:47;;;;;;;40.60;19.07;;;;;;;-0.67;79.02;97673.63;1708496;84;21082;-86
2021/11/01 02:07:33;;;;;;;39.03;18.70;;;;;;;-0.68;79.23;97679.70;1688547;84;21026;-86
2021/11/01 02:10:13;;;;;;;35.92;18.60;;;;;;;-0.68;78.94;97678.39;1708613;84;20975;-86
2021/11/01 02:12:45;;;;;;;36.17;17.95;;;;;;;-0.70;78.98;97678.82;1708809;83;21510;-85
2021/11/01 02:15:29;;;;;;;39.15;19.40;;;;;;;-0.74;78.97;97684.84;1720518;83;20976;-84
2021/11/01 02:17:57;;;;;;;37.55;19.57;;;;;;;-0.77;79.10;97675.28;1721075;83;20988;-84
2021/11/01 02:20:55;;;;;;;37.83;18.07;;;;;;;-0.77;79.14;97676.99;1720110;83;21088;-85
2021/11/01 02:24:04;;;;;;;38.38;18.32;;;;;;;-0.78;79.01;97663.55;1708119;84;21075;-85
2021/11/01 02:26:36;;;;;;;36.10;18.42;;;;;;;-0.81;79.11;97676.98;1708037;84;21083;-85
2021/11/01 02:29:04;;;;;;;35.50;17.60;;;;;;;-0.84;79.04;97674.75;1708442;84;21047;-85
2021/11/01 02:31:33;;;;;;;39.92;18.80;;;;;;;-0.82;80.16;97673.06;1708320;84;21107;-85
2021/11/01 02:34:02;;;;;;;34.18;17.10;;;;;;;-0.82;79.41;97671.75;1661412;85;21019;-85
2021/11/01 02:36:30;;;;;;;39.88;18.62;;;;;;;-0.81;79.74;97676.09;1679942;85;21452;-85
2021/11/01 02:38:58;;;;;;;36.95;18.25;;;;;;;-0.84;81.06;97671.73;1679950;85;21051;-85
2021/11/01 02:41:33;;;;;;;35.23;18.32;;;;;;;-0.90;81.84;97669.08;1697018;84;21036;-85
2021/11/01 02:44:05;;;;;;;37.08;18.48;;;;;;;-0.92;80.89;97669.91;1708342;84;21495;-85
2021/11/01 02:46:32;;;;;;;39.03;17.87;;;;;;;-0.97;80.87;97664.23;1708238;84;21491;-85
2021/11/01 02:49:00;;;;;;;35.78;17.52;;;;;;;-0.99;81.64;97662.47;1708214;84;21443;-85
2021/11/01 02:51:29;;;;;;;33.15;17.30;;;;;;;-0.98;81.60;97659.00;1708139;84;21030;-85
2021/11/01 02:53:59;;;;;;;32.60;17.02;;;;;;;-1.00;80.81;97664.18;1708183;84;21050;-85
2021/11/01 02:56:26;;;;;;;35.65;17.23;;;;;;;-0.98;81.92;97663.79;1707936;84;21054;-84
2021/11/01 02:58:54;;;;;;;34.05;16.82;;;;;;;-0.95;80.47;97666.85;1708323;84;21422;-84
2021/11/01 03:01:22;;;;;;;33.75;17.87;;;;;;;-0.98;81.32;97666.80;1708274;84;21059;-85
2021/11/01 03:03:49;;;;;;;32.13;16.40;;;;;;;-0.97;81.39;97669.84;1708275;84;21104;-84
2021/11/01 03:06:22;;;;;;;36.35;17.12;;;;;;;-0.98;80.98;97661.19;1708342;84;21024;-84
2021/11/01 03:08:51;;;;;;;31.37;16.60;;;;;;;-0.96;80.55;97663.78;1705432;84;21025;-84
2021/11/01 03:11:19;;;;;;;33.70;16.62;;;;;;;-0.95;80.95;97665.55;1705023;84;21032;-84
2021/11/01 03:13:49;;;;;;;35.00;17.10;;;;;;;-0.97;80.56;97666.83;1697457;84;21413;-84
2021/11/01 03:16:17;;;;;;;36.35;17.57;;;;;;;-0.97;80.37;97666.83;1695384;83;21477;-84
2021/11/01 03:18:58;;;;;;;35.60;16.60;;;;;;;-0.98;80.30;97667.69;1723705;83;20992;-84
2021/11/01 03:21:29;;;;;;;33.02;17.17;;;;;;;-1.02;80.04;97665.02;1734168;82;21013;-84
2021/11/01 03:23:58;;;;;;;33.02;16.48;;;;;;;-1.02;80.05;97671.52;1748539;82;21502;-84
2021/11/01 03:26:27;;;;;;;34.30;17.07;;;;;;;-1.02;80.42;97673.71;1748677;82;20985;-84
2021/11/01 03:28:58;;;;;;;33.02;17.92;;;;;;;-1.03;80.20;97675.87;1748728;82;21017;-84
2021/11/01 03:31:27;;;;;;;31.23;16.12;;;;;;;-1.04;79.99;97662.39;1748655;82;21478;-84
2021/11/01 03:33:54;;;;;;;32.42;16.73;;;;;;;-1.03;80.09;97665.47;1748551;82;21006;-84
2021/11/01 03:36:23;;;;;;;33.83;17.25;;;;;;;-1.02;80.21;97657.22;1748506;82;21024;-84
2021/11/01 03:38:51;;;;;;;35.45;17.27;;;;;;;-1.04;79.99;97663.70;1748487;82;21144;-85
2021/11/01 03:41:18;;;;;;;36.08;17.75;;;;;;;-1.08;79.88;97651.55;1743185;81;21101;-85
2021/11/01 03:43:56;;;;;;;36.10;16.97;;;;;;;-1.09;79.85;97666.27;1748619;82;21044;-84
2021/11/01 03:46:28;;;;;;;30.05;15.58;;;;;;;-1.10;79.80;97658.43;1748520;82;21076;-84
2021/11/01 03:48:49;;;;;;;32.55;15.68;;;;;;;-1.15;80.04;97657.51;1747726;82;21483;-84
2021/11/01 03:51:38;;;;;;;30.40;16.23;;;;;;;-1.10;80.21;97654.12;1747659;81;20969;-84
2021/11/01 03:53:44;;;;;;;32.00;16.52;;;;;;;-1.10;80.04;97650.62;1744599;82;21027;-84
2021/11/01 03:56:11;;;;;;;37.73;16.93;;;;;;;-1.14;79.81;97654.94;1748753;82;21089;-84
2021/11/01 03:58:39;;;;;;;32.42;15.95;;;;;;;-1.20;79.65;97650.52;1748835;82;21013;-84
2021/11/01 04:01:06;;;;;;;30.37;16.52;;;;;;;-1.22;79.85;97649.64;1748701;82;20999;-84
2021/11/01 04:03:33;;;;;;;31.80;16.40;;;;;;;-1.22;80.18;97648.34;1746714;82;21032;-84
2021/11/01 04:06:03;;;;;;;31.77;15.38;;;;;;;-1.20;79.79;97641.87;1742175;82;21027;-84
2021/11/01 04:08:31;;;;;;;28.00;14.00;;;;;;;-1.22;79.89;97643.56;1742334;82;21008;-84
2021/11/01 04:10:58;;;;;;;28.57;14.75;;;;;;;-1.27;81.89;97640.92;1747226;81;21302;-84
2021/11/01 04:13:25;;;;;;;30.37;15.28;;;;;;;-1.25;81.10;97635.74;1751783;82;21061;-84
2021/11/01 04:15:57;;;;;;;31.50;15.55;;;;;;;-1.25;80.48;97640.50;1741756;82;21000;-85
2021/11/01 04:18:36;;;;;;;32.10;15.78;;;;;;;-1.25;80.88;97623.59;1721564;83;21060;-85
2021/11/01 04:20:58;;;;;;;31.73;15.48;;;;;;;-1.25;80.22;97624.89;1721317;83;21446;-85
2021/11/01 04:23:31;;;;;;;29.07;15.30;;;;;;;-1.29;80.79;97618.35;1722526;83;21072;-85
2021/11/01 04:25:56;;;;;;;30.17;15.53;;;;;;;-1.29;80.28;97616.61;1721910;83;21020;-85
2021/11/01 04:28:22;;;;;;;32.33;15.72;;;;;;;-1.31;80.22;97622.23;1751550;82;20978;-85
2021/11/01 04:30:55;;;;;;;28.23;14.43;;;;;;;-1.35;80.22;97621.74;1751989;82;21005;-85
2021/11/01 04:33:20;;;;;;;27.10;14.10;;;;;;;-1.36;80.17;97629.11;1751160;82;20997;-86
2021/11/01 04:35:46;;;;;;;41.42;15.98;;;;;;;-1.41;80.19;97625.13;1751516;81;21041;-85
2021/11/01 04:38:24;;;;;;;31.25;16.27;;;;;;;-1.42;80.14;97625.14;1751783;82;21427;-85
2021/11/01 04:40:54;;;;;;;30.97;15.20;;;;;;;-1.44;80.11;97619.91;1749561;82;21052;-85
2021/11/01 04:54:15;;;;;;;29.63;14.45;;;;;;;-1.51;80.58;97625.88;1742190;82;20985;-84
2021/11/01 04:56:44;;;;;;;31.87;15.30;;;;;;;-1.50;81.03;97623.30;1742733;82;21009;-84
2021/11/01 04:59:11;;;;;;;27.52;14.90;;;;;;;-1.43;80.69;97619.47;1751904;82;21016;-85
2021/11/01 05:01:46;;;;;;;29.95;14.53;;;;;;;-1.43;80.57;97625.97;1751867;82;21028;-84
2021/11/01 05:04:14;;;;;;;30.52;14.33;;;;;;;-1.42;80.43;97625.14;1751594;82;21599;-84
2021/11/01 05:07:01;;;;;;;29.12;15.32;;;;;;;-1.41;80.27;97625.58;1751545;82;21095;-83
2021/11/01 05:09:16;;;;;;;31.27;15.30;;;;;;;-1.43;80.52;97628.16;1739023;82;21410;-84
2021/11/01 05:11:48;;;;;;;29.80;15.55;;;;;;;-1.42;80.49;97624.69;1750389;82;21545;-83
2021/11/01 05:14:11;;;;;;;30.30;15.00;;;;;;;-1.41;80.36;97619.08;1750340;82;21027;-83
2021/11/01 05:19:26;;;;;;;26.75;14.65;;;;;;;-1.36;80.34;97621.30;1752066;82;21352;-84
2021/11/01 05:21:59;;;;;;;29.60;14.73;;;;;;;-1.37;81.28;97621.72;1750968;82;20949;-83
2021/11/01 05:24:32;;;;;;;30.27;15.03;;;;;;;-1.35;81.26;97624.34;1735129;82;21033;-84
2021/11/01 05:27:09;;;;;;;29.00;14.05;;;;;;;-1.36;80.63;97623.45;1751172;82;20966;-84
2021/11/01 05:29:24;;;;;;;29.82;14.73;;;;;;;-1.36;81.16;97622.61;1748982;82;21069;-84
2021/11/01 05:32:00;;;;;;;26.68;14.90;;;;;;;-1.38;82.45;97622.99;1751982;82;21032;-84
2021/11/01 05:34:22;;;;;;;31.25;15.88;;;;;;;-1.40;82.16;97627.31;1748680;82;20978;-84
2021/11/01 05:36:49;;;;;;;34.08;14.30;;;;;;;-1.39;81.48;97632.54;1747943;82;20957;-84
2021/11/01 05:39:16;;;;;;;30.45;16.10;;;;;;;-1.37;81.43;97625.62;1722278;83;21027;-84
2021/11/01 05:41:43;;;;;;;33.10;15.00;;;;;;;-1.35;81.03;97625.64;1750149;81;21423;-84
2021/11/01 05:44:10;;;;;;;33.40;16.65;;;;;;;-1.34;80.92;97626.97;1751783;82;22075;-84
2021/11/01 05:46:42;;;;;;;31.90;15.70;;;;;;;-1.29;81.02;97631.36;1747236;82;20941;-84
2021/11/01 05:49:08;;;;;;;31.65;14.90;;;;;;;-1.28;81.66;97620.98;1709109;84;21043;-84
2021/11/01 05:51:36;;;;;;;32.60;16.35;;;;;;;-1.23;81.16;97628.41;1708041;84;21059;-84
2021/11/01 05:54:10;;;;;;;27.87;15.03;;;;;;;-1.15;81.09;97622.41;1675874;84;21389;-84
2021/11/01 05:56:38;;;;;;;32.93;16.23;;;;;;;-1.12;80.77;97623.75;1707599;84;21007;-84
2021/11/01 06:01:44;;;;;;;29.70;15.70;;;;;;;-1.13;81.28;97624.16;1655506;85;21559;-84
2021/11/01 06:04:08;;;;;;;32.73;15.78;;;;;;;-1.13;81.12;97618.11;1685735;84;21052;-84
2021/11/01 06:09:31;;;;;;;33.38;15.95;;;;;;;-1.09;80.85;97627.25;1680003;85;21076;-84
2021/11/01 06:14:32;;;;;;;;;;;;;;;-1.01;81.66;97619.94;1682523;85;21433;-85
2021/11/01 06:17:00;;;;;;;32.08;15.80;;;;;;;-1.02;80.96;97620.39;1676730;85;20172;-85
2021/11/01 06:19:27;;;;;;;32.38;16.15;;;;;;;-0.99;80.81;97620.40;1687810;85;21009;-84
2021/11/01 06:21:54;;;;;;;34.48;16.20;;;;;;;-0.94;80.93;97615.27;1687474;85;21415;-85
2021/11/01 06:27:10;;;;;;;29.75;16.02;;;;;;;-0.80;80.67;97615.39;1680068;85;21060;-84
2021/11/01 06:29:49;;;;;;;33.05;16.35;;;;;;;-0.75;80.79;97615.00;1679941;85;21521;-85
2021/11/01 06:32:25;;;;;;;34.92;16.45;;;;;;;-0.68;80.58;97615.52;1676960;85;21013;-85
2021/11/01 06:39:04;;;;;;;37.00;16.97;;;;;;;-0.67;80.38;97612.05;1676591;85;21462;-84
2021/11/01 06:40:26;;;;;;;35.68;17.00;;;;;;;-0.53;80.63;97615.21;1680061;85;21012;-85
2021/11/01 06:42:29;;;;;;;32.35;16.52;;;;;;;-0.45;80.38;97605.71;1672125;85;21044;-85
2021/11/01 06:45:09;;;;;;;36.10;18.35;;;;;;;-0.37;80.33;97611.42;1654369;85;21028;-86
2021/11/01 06:50:16;;;;;;;40.95;17.07;;;;;;;-0.28;79.97;97608.45;1680090;85;21411;-84
2021/11/01 06:53:10;;;;;;;36.60;17.57;;;;;;;-0.25;80.17;97606.30;1678906;85;20996;-85
2021/11/01 07:16:46;;;;;;;34.65;17.10;;;;;;;0.61;80.02;97589.41;1700232;82;21026;-87
2021/11/01 08:44:26;;;;;;;51.35;28.57;;;;;;;4.26;73.85;97516.00;1737919;82;21411;-81
2021/11/01 08:52:12;;;;;;;50.17;28.12;;;;;;;4.55;73.24;97525.27;1737005;82;21040;-80
2021/11/01 09:19:22;;;;;;;38.13;20.25;;;;;;;5.62;70.22;97493.89;1748505;82;21013;-81
2021/11/01 09:26:36;;;;;;;42.25;22.82;;;;;;;5.93;69.50;97479.28;1741068;80;21028;-84
2021/11/01 09:29:16;;;;;;;39.18;22.80;;;;;;;6.06;68.30;97478.63;1746161;82;21036;-84
2021/11/01 09:40:53;;;;;;;43.40;23.30;;;;;;;6.48;67.42;97460.69;1747331;82;21005;-84
2021/11/01 09:42:13;;;;;;;46.60;25.55;;;;;;;6.60;66.87;97452.94;1735488;82;21005;-82
2021/11/01 09:44:48;;;;;;;37.45;22.62;;;;;;;6.70;66.06;97450.55;1731031;82;21045;-78
2021/11/01 09:47:18;;;;;;;48.78;23.27;;;;;;;6.78;65.55;97440.27;1708757;84;21048;-80
2021/11/01 09:49:45;;;;;;;39.65;23.18;;;;;;;6.90;66.46;97437.36;1711711;84;21486;-81
2021/11/01 09:52:14;;;;;;;43.00;24.37;;;;;;;7.05;66.45;97438.75;1712247;84;21040;-79
2021/11/01 09:54:42;;;;;;;39.88;22.80;;;;;;;7.18;66.24;97428.77;1728285;82;21354;-81
2021/11/01 09:57:24;;;;;;;34.60;20.77;;;;;;;7.33;66.66;97425.33;1731784;81;21107;-80
2021/11/01 09:59:49;;;;;;;35.05;18.95;;;;;;;7.46;66.20;97433.78;1730105;82;21116;-76
2021/11/01 10:02:19;;;;;;;35.92;18.75;;;;;;;7.62;65.24;97423.70;1743653;82;21039;-76
2021/11/01 10:04:53;;;;;;;34.03;18.77;;;;;;;7.74;63.96;97413.27;1731980;83;21544;-78
2021/11/01 10:07:31;;;;;;;29.97;17.17;;;;;;;7.90;64.31;97421.16;1733703;82;21065;-80
2021/11/01 10:10:08;;;;;;;31.15;18.82;;;;;;;8.05;64.01;97413.27;1733340;82;21001;-77
2021/11/01 10:12:38;;;;;;;34.78;18.92;;;;;;;8.20;63.55;97403.18;1734247;82;20977;-79
2021/11/01 10:18:10;;;;;;;40.08;22.87;;;;;;;8.54;63.54;97408.80;1753634;81;21116;-78
2021/11/01 10:20:48;;;;;;;41.20;24.18;;;;;;;8.69;63.50;97399.98;1748866;82;20980;-79
2021/11/01 10:23:24;;;;;;;39.88;23.92;;;;;;;8.85;63.66;97395.09;1733505;82;21056;-77
2021/11/01 10:26:11;;;;;;;46.73;24.43;;;;;;;8.98;62.04;97395.55;1753795;81;21059;-78
2021/11/01 10:28:39;;;;;;;41.18;23.67;;;;;;;9.27;62.71;97389.74;1757973;81;21001;-84
2021/11/01 10:31:09;;;;;;;38.20;22.20;;;;;;;10.33;62.12;97381.13;1741857;81;21478;-83
2021/11/01 10:33:45;;;;;;;40.03;23.47;;;;;;;11.44;58.38;97368.27;1733577;82;21034;-82
2021/11/01 10:36:29;;;;;;;40.55;23.90;;;;;;;12.38;56.21;97369.02;1736504;82;21121;-82
2021/11/01 10:39:19;;;;;;;37.10;24.20;;;;;;;13.26;54.36;97366.54;1753161;82;21040;-82
2021/11/01 10:44:52;;;;;;;36.40;24.10;;;;;;;14.91;47.36;97346.27;1748298;82;21059;-82
2021/11/01 11:15:05;;;;;;;25.27;18.45;;;;;;;21.49;35.49;97294.62;1758519;81;21401;-83
2021/11/01 11:17:43;;;;;;;26.55;18.05;;;;;;;21.62;32.22;97286.32;1757536;81;21010;-82
2021/11/01 11:26:04;;;;;;;22.58;15.80;;;;;;;22.37;31.27;97281.20;1752892;82;21406;-82
2021/11/01 11:28:48;;;;;;;23.47;16.17;;;;;;;22.40;29.65;97276.41;1748681;82;21350;-81
2021/11/01 11:39:35;;;;;;;18.52;13.48;;;;;;;23.02;29.11;97265.92;1753070;82;21044;-82
2021/11/01 11:42:34;;;;;;;19.95;14.23;;;;;;;22.51;28.85;97265.13;1743664;82;22228;-82
2021/11/01 11:48:02;;;;;;;17.30;12.43;;;;;;;22.32;28.03;97260.52;1723152;82;21080;-82
2021/11/01 11:50:27;;;;;;;21.52;13.88;;;;;;;22.11;30.37;97267.72;1721439;83;21480;-83
2021/11/01 11:52:54;;;;;;;18.25;13.98;;;;;;;22.19;27.86;97260.77;1723651;83;20985;-83
2021/11/01 11:55:29;;;;;;;22.05;13.22;;;;;;;22.45;28.63;97254.38;1723437;83;21466;-83
2021/11/01 11:58:01;;;;;;;19.77;13.10;;;;;;;22.31;30.03;97250.23;1723349;83;21154;-82
2021/11/01 12:00:32;;;;;;;15.40;12.15;;;;;;;22.07;29.52;97247.88;1734998;82;20996;-83
2021/11/01 12:03:13;;;;;;;23.35;12.30;;;;;;;22.02;28.31;97245.60;1746137;82;21021;-82
2021/11/01 12:05:54;;;;;;;16.30;11.85;;;;;;;21.87;29.42;97246.45;1736161;82;21041;-80
2021/11/01 12:08:30;;;;;;;13.70;10.88;;;;;;;20.60;29.14;97246.77;1730574;83;21363;-80
2021/11/01 12:19:15;;;;;;;18.50;13.40;;;;;;;18.55;33.42;97246.86;1746273;82;21407;-83
2021/11/01 12:21:47;;;;;;;22.60;14.10;;;;;;;18.06;32.99;97249.96;1722868;83;20996;-82
2021/11/01 12:24:25;;;;;;;20.02;13.15;;;;;;;17.65;34.53;97247.93;1730997;82;21465;-81
2021/11/01 12:27:09;;;;;;;18.82;12.88;;;;;;;17.31;35.19;97248.95;1742819;82;21012;-83
2021/11/01 12:29:40;;;;;;;24.43;13.98;;;;;;;17.05;35.56;97241.73;1741914;82;20993;-80
2021/11/01 12:32:12;;;;;;;23.38;13.78;;;;;;;16.67;36.19;97243.80;1747899;82;21409;-82
2021/11/01 12:34:56;;;;;;;20.92;13.35;;;;;;;16.29;36.94;97243.58;1747976;82;21076;-83
2021/11/01 12:37:52;;;;;;;22.45;13.03;;;;;;;15.90;37.23;97235.30;1741762;81;21005;-82
2021/11/01 12:48:43;;;;;;;24.23;14.55;;;;;;;16.35;37.35;97229.80;1729423;82;21487;-84
2021/11/01 12:59:49;;;;;;;21.90;12.93;;;;;;;15.84;37.91;97217.87;1718626;83;21481;-83
2021/11/01 13:02:27;;;;;;;17.20;12.18;;;;;;;15.82;37.18;97217.59;1718519;83;21013;-83
2021/11/01 13:04:56;;;;;;;21.97;13.95;;;;;;;15.93;37.58;97216.44;1717935;83;21021;-84
2021/11/01 13:13:17;;;;;;;21.27;11.70;;;;;;;15.87;37.97;97206.59;1748131;82;21060;-83
2021/11/01 13:18:09;;;;;;;20.25;11.97;;;;;;;16.81;36.37;97192.06;1719327;82;20993;-84
2021/11/01 13:20:48;;;;;;;21.68;12.33;;;;;;;17.35;36.16;97191.53;1747701;82;21012;-83
2021/11/01 13:23:15;;;;;;;18.37;12.75;;;;;;;17.70;35.24;97196.20;1743344;82;21056;-86
2021/11/01 13:39:42;;;;;;;19.37;12.68;;;;;;;14.41;39.78;97193.05;1742706;82;21001;-83
2021/11/01 13:42:12;;;;;;;20.48;12.47;;;;;;;14.13;40.15;97190.17;1747321;82;21072;-83
2021/11/01 13:44:39;;;;;;;21.60;11.80;;;;;;;13.85;40.65;97188.22;1747805;82;21040;-83
2021/11/01 13:47:10;;;;;;;18.65;11.83;;;;;;;13.56;41.41;97187.56;1747620;82;21173;-83
2021/11/01 13:49:38;;;;;;;18.87;11.35;;;;;;;13.35;41.58;97188.22;1746294;82;21021;-82
2021/11/01 13:52:34;;;;;;;17.15;11.25;;;;;;;13.13;42.46;97184.52;1748024;82;20993;-81
2021/11/01 13:57:38;;;;;;;14.93;9.50;;;;;;;12.77;42.83;97181.92;1747792;82;21024;-82
2021/11/01 14:02:59;;;;;;;19.07;9.83;;;;;;;12.43;43.66;97176.12;1699520;84;21500;-80
2021/11/01 14:27:37;;;;;;;16.35;9.68;;;;;;;11.32;46.16;97174.69;1730680;82;21031;-83
2021/11/01 14:29:39;;;;;;;20.12;10.45;;;;;;;11.18;46.14;97164.23;1721061;82;21021;-85
2021/11/01 14:32:29;;;;;;;16.97;9.73;;;;;;;11.08;47.09;97163.80;1744944;82;21057;-81
2021/11/01 14:57:38;;;;;;;16.10;9.33;;;;;;;10.18;48.67;97138.50;1745314;82;21016;-81
2021/11/01 14:59:40;;;;;;;14.98;10.00;;;;;;;10.04;48.78;97141.70;1743439;82;21056;-81
2021/11/01 15:15:33;;;;;;;18.52;9.65;;;;;;;9.28;49.85;97139.39;1746814;82;20962;-79
2021/11/01 15:20:51;;;;;;;;;;;;;;;8.98;50.66;97139.19;1746457;82;21093;-76
2021/11/01 15:23:24;;;;;;;19.92;9.45;;;;;;;8.83;50.54;97144.56;1730045;82;20331;-76
2021/11/01 15:28:30;;;;;;;16.87;9.25;;;;;;;8.53;51.07;97143.42;1730769;83;20992;-73
2021/11/01 15:42:19;;;;;;;19.67;10.98;;;;;;;7.83;52.70;97154.94;1747776;82;21068;-74
2021/11/01 16:17:28;;;;;;;30.37;14.95;;;;;;;6.31;58.22;97152.67;1729077;82;21012;-77
2021/11/01 16:19:51;;;;;;;43.00;19.57;;;;;;;6.22;57.16;97154.23;1734029;82;20978;-78
2021/11/01 16:22:19;;;;;;;87.78;30.92;;;;;;;6.15;57.96;97160.09;1734712;82;20973;-77
2021/11/01 16:24:48;;;;;;;69.50;28.65;;;;;;;6.09;60.32;97157.63;1741688;82;21020;-77
2021/11/01 16:27:19;;;;;;;60.40;25.00;;;;;;;6.10;61.17;97161.98;1754132;82;20953;-77
2021/11/01 16:30:01;;;;;;;52.58;23.32;;;;;;;6.11;61.90;97167.67;1754162;82;21020;-77
2021/11/01 16:32:32;;;;;;;56.08;23.20;;;;;;;6.10;59.65;97161.12;1753932;82;20997;-77
2021/11/01 16:34:58;;;;;;;48.65;21.77;;;;;;;6.07;62.86;97162.91;1753570;82;21439;-77
2021/11/01 16:39:55;;;;;;;57.60;25.15;;;;;;;6.00;60.85;97159.13;1742126;82;20990;-77
2021/11/01 16:42:25;;;;;;;65.50;26.35;;;;;;;5.97;60.30;97153.97;1734482;81;21061;-77
2021/11/01 16:44:52;;;;;;;73.30;29.75;;;;;;;5.89;59.99;97151.50;1742171;82;21065;-77
2021/11/01 16:47:20;;;;;;;78.30;31.68;;;;;;;5.80;60.08;97153.47;1749478;81;21383;-77
2021/11/01 16:49:50;;;;;;;67.80;28.80;;;;;;;5.71;60.71;97147.55;1754344;82;21056;-77
2021/11/01 16:52:19;;;;;;;65.32;27.22;;;;;;;5.63;60.70;97150.36;1754441;81;21417;-77
2021/11/01 16:54:55;;;;;;;76.25;29.18;;;;;;;5.54;60.69;97160.21;1745039;82;20982;-77
2021/11/01 16:57:30;;;;;;;60.73;24.95;;;;;;;5.47;61.00;97157.29;1749204;82;21390;-77
2021/11/01 16:59:55;;;;;;;71.92;29.95;;;;;;;5.43;61.47;97156.94;1752386;82;21091;-77
2021/11/01 17:21:39;;;;;;;33.67;16.97;;;;;;;4.96;68.62;97166.26;1748883;82;21411;-77
2021/11/01 17:26:41;;;;;;;38.38;20.57;;;;;;;4.85;64.69;97155.53;1746196;82;21486;-77
2021/11/01 17:34:49;;;;;;;56.45;23.38;;;;;;;4.67;65.69;97165.07;1701876;82;21084;-77
2021/11/01 18:38:25;;;;;;;90.35;38.92;;;;;;;3.35;66.91;97170.72;1739594;81;21485;-78
2021/11/01 18:46:15;;;;;;;86.80;38.38;;;;;;;3.17;67.60;97170.09;1736057;82;20990;-77
2021/11/01 18:51:28;;;;;;;79.65;36.85;;;;;;;3.08;68.16;97156.70;1748581;82;21021;-77
2021/11/01 18:54:09;;;;;;;88.30;37.20;;;;;;;3.04;70.77;97157.62;1745295;82;20987;-78
2021/11/01 18:56:37;;;;;;;91.28;39.50;;;;;;;3.02;69.42;97160.68;1728590;82;21025;-78
2021/11/01 18:59:07;;;;;;;92.00;38.67;;;;;;;3.00;69.00;97167.23;1748638;82;21044;-78
2021/11/01 19:01:38;;;;;;;87.67;37.50;;;;;;;2.96;68.74;97157.72;1748885;82;21013;-78
2021/11/01 19:04:12;;;;;;;83.70;37.50;;;;;;;2.94;68.95;97160.78;1748740;82;21017;-78
2021/11/01 19:06:50;;;;;;;77.37;36.75;;;;;;;2.89;69.09;97159.97;1747602;82;21084;-78
2021/11/01 20:04:59;;;;;;;80.17;36.98;;;;;;;2.28;71.50;97162.40;1759904;81;21000;-77
2021/11/01 20:14:09;;;;;;;79.65;34.48;;;;;;;2.08;71.46;97147.77;1759989;81;21022;-78
2021/11/01 21:25:27;;;;;;;64.05;30.85;;;;;;;1.42;77.65;97100.42;1744778;81;21600;-79
2021/11/01 21:27:53;;;;;;;70.62;31.97;;;;;;;1.38;76.37;97090.88;1741092;81;21024;-78
2021/11/01 21:30:20;;;;;;;64.80;32.88;;;;;;;1.39;76.22;97092.59;1743863;81;21498;-79
2021/11/01 21:32:49;;;;;;;64.72;33.65;;;;;;;1.39;76.25;97089.56;1743587;81;21001;-78
2021/11/01 21:35:18;;;;;;;70.72;32.20;;;;;;;1.37;75.32;97089.99;1742840;81;21063;-79
2021/11/01 21:37:46;;;;;;;66.30;30.75;;;;;;;1.33;75.21;97092.22;1746621;81;21163;-78
2021/11/01 21:40:15;;;;;;;67.70;29.60;;;;;;;1.27;75.02;97089.20;1691439;83;21005;-78
2021/11/01 21:42:43;;;;;;;60.63;29.50;;;;;;;1.19;74.82;97092.30;1738274;82;21041;-78
2021/11/01 21:45:10;;;;;;;60.60;29.25;;;;;;;1.08;75.14;97092.81;1738617;82;20981;-78
2021/11/01 21:47:39;;;;;;;65.20;30.50;;;;;;;0.97;75.69;97087.66;1743713;80;20985;-78
2021/11/01 21:50:06;;;;;;;68.95;31.30;;;;;;;0.97;75.51;97094.18;1746011;79;20961;-76
2021/11/01 21:52:35;;;;;;;67.22;29.98;;;;;;;0.93;75.49;97082.90;1746008;81;20957;-78
2021/11/01 21:55:04;;;;;;;62.43;30.37;;;;;;;0.89;75.52;97089.01;1742683;81;20970;-77
2021/11/01 21:57:47;;;;;;;57.55;30.68;;;;;;;0.87;75.86;97086.86;1739586;82;21041;-80